createdAt,value
2023-05-02T00:00:19.395Z,6.07
2023-05-02T00:02:49.463Z,6.20
2023-05-02T00:05:18.271Z,5.28
2023-05-02T00:07:48.015Z,5.65
2023-05-02T00:10:16.602Z,5.20
2023-05-02T00:12:45.267Z,5.05
2023-05-02T00:15:13.917Z,5.88
2023-05-02T00:17:43.567Z,4.90
2023-05-02T00:20:14.104Z,5.18
2023-05-02T00:22:42.675Z,5.90
2023-05-02T00:25:16.149Z,5.93
2023-05-02T00:27:46.910Z,7.65
2023-05-02T00:30:16.187Z,8.98
2023-05-02T00:32:44.790Z,8.15
2023-05-02T00:35:14.783Z,12.68
2023-05-02T00:37:43.241Z,11.20
2023-05-02T00:40:12.804Z,18.40
2023-05-02T00:42:41.344Z,15.77
2023-05-02T00:45:10.523Z,15.00
2023-05-02T00:47:39.211Z,15.00
2023-05-02T00:50:10.446Z,13.55
2023-05-02T00:52:40.569Z,12.43
2023-05-02T00:55:09.884Z,13.38
2023-05-02T00:57:39.074Z,14.23
2023-05-02T01:00:09.553Z,16.15
2023-05-02T01:02:49.529Z,19.27
2023-05-02T01:05:22.273Z,18.02
2023-05-02T01:08:10.120Z,21.90
2023-05-02T01:10:50.984Z,17.27
2023-05-02T01:13:23.303Z,18.20
2023-05-02T01:15:53.748Z,15.20
2023-05-02T01:18:24.942Z,14.88
2023-05-02T01:20:58.480Z,16.65
2023-05-02T01:23:36.504Z,16.83
2023-05-02T01:26:16.948Z,16.80
2023-05-02T01:29:08.273Z,17.15
2023-05-02T01:31:39.143Z,18.25
2023-05-02T01:34:11.131Z,22.42
2023-05-02T01:36:45.065Z,23.17
2023-05-02T01:39:19.624Z,22.55
2023-05-02T01:41:51.330Z,25.23
2023-05-02T01:44:22.904Z,25.75
2023-05-02T01:46:54.709Z,23.67
2023-05-02T01:49:25.663Z,25.77
2023-05-02T01:51:54.627Z,31.08
2023-05-02T01:54:25.053Z,30.08
2023-05-02T01:56:53.879Z,36.05
2023-05-02T01:59:26.860Z,30.67
2023-05-02T02:01:56.919Z,25.38
2023-05-02T02:04:27.289Z,26.98
2023-05-02T02:07:01.950Z,26.98
2023-05-02T02:09:31.648Z,26.23
2023-05-02T02:12:08.073Z,25.20
2023-05-02T02:14:39.569Z,24.27
2023-05-02T02:17:26.351Z,23.00
2023-05-02T02:19:57.463Z,22.63
2023-05-02T02:22:29.318Z,18.25
2023-05-02T02:25:00.304Z,21.95
2023-05-02T02:27:29.192Z,23.42
2023-05-02T02:29:59.413Z,19.13
2023-05-02T02:32:29.224Z,23.23
2023-05-02T02:34:57.896Z,19.65
2023-05-02T02:37:32.419Z,19.40
2023-05-02T02:40:06.867Z,17.73
2023-05-02T02:42:42.254Z,18.73
2023-05-02T02:45:23.012Z,14.07
2023-05-02T02:47:58.217Z,13.75
2023-05-02T02:50:32.464Z,15.82
2023-05-02T02:53:05.438Z,20.67
2023-05-02T02:55:41.867Z,17.92
2023-05-02T02:58:21.423Z,14.63
2023-05-02T03:00:51.720Z,15.13
2023-05-02T03:03:25.043Z,14.82
2023-05-02T03:05:53.807Z,14.13
2023-05-02T03:08:25.169Z,14.35
2023-05-02T03:10:54.596Z,13.05
2023-05-02T03:13:23.621Z,13.57
2023-05-02T03:16:24.501Z,15.82
2023-05-02T03:18:53.393Z,13.15
2023-05-02T03:21:22.287Z,19.77
2023-05-02T03:23:50.937Z,15.75
2023-05-02T03:26:19.454Z,18.58
2023-05-02T03:28:48.338Z,17.52
2023-05-02T03:31:26.209Z,24.33
2023-05-02T03:33:55.450Z,16.85
2023-05-02T03:36:24.444Z,19.33
2023-05-02T03:38:56.026Z,18.40
2023-05-02T03:41:25.845Z,16.45
2023-05-02T03:44:01.481Z,18.48
2023-05-02T03:46:32.367Z,14.55
2023-05-02T03:49:00.954Z,13.70
2023-05-02T03:51:29.392Z,13.35
2023-05-02T03:53:59.437Z,12.52
2023-05-02T03:56:27.882Z,12.88
2023-05-02T03:59:08.368Z,15.27
2023-05-02T04:01:38.749Z,15.23
2023-05-02T04:04:11.092Z,12.43
2023-05-02T04:06:47.041Z,13.27
2023-05-02T04:09:16.161Z,12.25
2023-05-02T04:11:52.217Z,11.13
2023-05-02T04:14:20.783Z,12.82
2023-05-02T04:16:52.856Z,11.65
2023-05-02T04:19:29.279Z,13.23
2023-05-02T04:21:57.761Z,14.23
2023-05-02T04:24:26.278Z,12.13
2023-05-02T04:26:55.413Z,11.18
2023-05-02T04:29:23.881Z,12.40
2023-05-02T04:31:54.459Z,10.68
2023-05-02T04:34:25.480Z,10.43
2023-05-02T04:36:54.156Z,12.73
2023-05-02T04:39:24.391Z,12.02
2023-05-02T04:42:02.313Z,11.88
2023-05-02T04:44:34.287Z,11.82
2023-05-02T04:47:04.882Z,12.30
2023-05-02T04:49:33.822Z,11.05
2023-05-02T04:52:02.397Z,12.13
2023-05-02T04:54:31.246Z,11.75
2023-05-02T04:56:59.877Z,8.88
2023-05-02T04:59:28.330Z,11.48
2023-05-02T05:01:56.969Z,13.00
2023-05-02T05:04:27.099Z,11.75
2023-05-02T05:06:55.714Z,13.80
2023-05-02T05:09:25.998Z,11.02
2023-05-02T05:11:55.215Z,10.70
2023-05-02T05:14:24.377Z,11.98
2023-05-02T05:16:55.865Z,11.32
2023-05-02T05:19:25.062Z,10.55
2023-05-02T05:21:55.808Z,10.75
2023-05-02T05:24:24.414Z,13.55
2023-05-02T05:26:55.344Z,11.88
2023-05-02T05:29:24.691Z,10.32
2023-05-02T05:31:53.242Z,14.07
2023-05-02T05:34:23.126Z,12.13
2023-05-02T05:36:53.126Z,12.10
2023-05-02T05:39:25.277Z,10.05
2023-05-02T05:41:55.757Z,11.10
2023-05-02T05:44:25.863Z,12.75
2023-05-02T05:46:54.740Z,15.20
2023-05-02T05:49:25.412Z,16.35
2023-05-02T05:51:54.627Z,12.60
2023-05-02T05:54:24.743Z,14.50
2023-05-02T05:56:53.273Z,14.00
2023-05-02T05:59:22.432Z,14.45
2023-05-02T06:01:51.209Z,14.75
2023-05-02T06:04:22.823Z,14.15
2023-05-02T06:06:54.422Z,13.00
2023-05-02T06:09:24.472Z,13.45
2023-05-02T06:11:52.986Z,11.48
2023-05-02T06:14:21.415Z,10.55
2023-05-02T06:16:51.368Z,13.40
2023-05-02T06:19:19.918Z,8.77
2023-05-02T06:21:48.399Z,7.70
2023-05-02T06:24:16.997Z,6.60
2023-05-02T06:26:46.982Z,8.20
2023-05-02T06:29:15.472Z,8.43
2023-05-02T06:31:43.875Z,7.82
2023-05-02T06:34:12.518Z,6.68
2023-05-02T06:36:41.011Z,6.90
2023-05-02T06:39:09.634Z,5.90
2023-05-02T06:41:38.235Z,6.65
2023-05-02T06:44:08.220Z,5.32
2023-05-02T06:46:36.809Z,6.18
2023-05-02T06:49:05.362Z,4.80
2023-05-02T06:51:34.093Z,7.15
2023-05-02T06:54:02.680Z,5.32
2023-05-02T06:56:31.405Z,8.50
2023-05-02T06:59:00.182Z,6.18
2023-05-02T07:01:30.614Z,4.57
2023-05-02T07:03:59.485Z,5.30
2023-05-02T07:06:28.150Z,5.95
2023-05-02T07:08:57.779Z,4.05
2023-05-02T07:11:27.821Z,4.30
2023-05-02T07:13:56.206Z,4.38
2023-05-02T07:16:24.770Z,6.32
2023-05-02T07:18:54.510Z,6.60
2023-05-02T07:21:22.942Z,4.95
2023-05-02T07:23:51.364Z,5.40
2023-05-02T07:26:20.046Z,7.28
2023-05-02T07:28:48.500Z,4.70
2023-05-02T07:31:18.845Z,6.60
2023-05-02T07:33:47.597Z,4.88
2023-05-02T07:36:18.135Z,5.50
2023-05-02T07:38:46.683Z,6.20
2023-05-02T07:41:15.749Z,6.53
2023-05-02T07:43:44.469Z,6.40
2023-05-02T07:46:14.586Z,5.82
2023-05-02T07:48:44.157Z,7.72
2023-05-02T07:51:12.806Z,6.10
2023-05-02T07:53:42.888Z,4.78
2023-05-02T07:56:12.780Z,5.95
2023-05-02T07:58:41.815Z,4.97
2023-05-02T08:01:11.880Z,5.18
2023-05-02T08:03:41.104Z,3.72
2023-05-02T08:06:10.566Z,3.97
2023-05-02T08:08:39.563Z,4.25
2023-05-02T08:11:09.760Z,4.18
2023-05-02T08:13:38.269Z,5.03
2023-05-02T08:16:10.627Z,6.28
2023-05-02T08:18:41.796Z,4.38
2023-05-02T08:21:10.183Z,4.25
2023-05-02T08:23:38.743Z,4.32
2023-05-02T08:26:07.629Z,4.65
2023-05-02T08:28:40.197Z,4.45
2023-05-02T08:31:09.469Z,4.70
2023-05-02T08:33:38.644Z,5.45
2023-05-02T08:36:12.769Z,4.00
2023-05-02T08:38:42.481Z,5.68
2023-05-02T08:41:36.153Z,4.97
2023-05-02T08:44:07.800Z,4.28
2023-05-02T08:46:37.628Z,4.53
2023-05-02T08:49:07.606Z,6.68
2023-05-02T08:51:39.209Z,4.75
2023-05-02T08:54:10.617Z,3.60
2023-05-02T08:56:39.597Z,3.85
2023-05-02T08:59:09.543Z,5.63
2023-05-02T09:01:42.491Z,4.05
2023-05-02T09:04:11.414Z,6.07
2023-05-02T09:06:41.384Z,3.97
2023-05-02T09:09:09.831Z,3.60
2023-05-02T09:11:39.011Z,3.72
2023-05-02T09:14:16.414Z,3.83
2023-05-02T09:16:45.134Z,5.15
2023-05-02T09:19:26.042Z,3.42
2023-05-02T09:22:01.382Z,3.50
2023-05-02T09:24:31.115Z,4.85
2023-05-02T09:27:01.223Z,3.85
2023-05-02T09:29:36.059Z,4.85
2023-05-02T09:32:09.060Z,3.63
2023-05-02T09:34:39.297Z,4.30
2023-05-02T09:37:08.382Z,5.88
2023-05-02T09:39:37.067Z,4.18
2023-05-02T09:42:08.661Z,5.47
2023-05-02T09:44:40.388Z,4.80
2023-05-02T09:47:09.483Z,4.68
2023-05-02T09:49:43.076Z,5.00
2023-05-02T09:52:12.671Z,5.47
2023-05-02T09:54:41.318Z,4.57
2023-05-02T09:57:11.012Z,5.80
2023-05-02T09:59:41.919Z,6.50
2023-05-02T10:02:12.048Z,5.88
2023-05-02T10:04:42.809Z,4.75
2023-05-02T10:07:12.690Z,3.65
2023-05-02T10:09:45.431Z,6.65
2023-05-02T10:12:16.898Z,4.07
2023-05-02T10:14:53.305Z,6.50
2023-05-02T10:17:28.555Z,5.82
2023-05-02T10:20:02.105Z,7.28
2023-05-02T10:22:32.162Z,5.05
2023-05-02T10:25:02.160Z,4.47
2023-05-02T10:27:32.476Z,5.53
2023-05-02T10:30:04.397Z,6.13
2023-05-02T10:32:35.057Z,4.50
2023-05-02T10:35:06.166Z,5.85
2023-05-02T10:37:37.762Z,4.60
2023-05-02T10:40:10.967Z,4.85
2023-05-02T10:42:42.166Z,6.22
2023-05-02T10:45:14.584Z,3.90
2023-05-02T10:47:43.185Z,4.22
2023-05-02T10:50:11.983Z,4.85
2023-05-02T10:52:41.239Z,5.20
2023-05-02T10:55:19.476Z,4.05
2023-05-02T10:58:23.693Z,4.32
2023-05-02T11:00:53.605Z,5.75
2023-05-02T11:03:55.281Z,5.47
2023-05-02T11:06:24.640Z,5.28
2023-05-02T11:08:53.584Z,4.80
2023-05-02T11:11:41.933Z,5.47
2023-05-02T11:14:10.843Z,6.90
2023-05-02T11:17:09.140Z,10.55
2023-05-02T11:20:29.153Z,7.53
2023-05-02T11:22:59.593Z,5.97
2023-05-02T11:25:46.713Z,7.10
2023-05-02T11:28:48.151Z,6.68
2023-05-02T11:32:03.725Z,7.80
2023-05-02T11:34:45.438Z,8.10
2023-05-02T11:37:15.637Z,6.90
2023-05-02T11:39:44.151Z,4.78
2023-05-02T11:42:28.526Z,7.30
2023-05-02T11:45:00.320Z,5.97
2023-05-02T11:47:29.755Z,7.07
2023-05-02T11:50:06.211Z,6.45
2023-05-02T11:52:39.550Z,7.60
2023-05-02T11:55:11.608Z,6.50
2023-05-02T11:57:40.948Z,8.32
2023-05-02T12:00:13.020Z,7.05
2023-05-02T12:02:42.687Z,7.95
2023-05-02T12:05:13.889Z,8.82
2023-05-02T12:07:44.831Z,8.82
2023-05-02T12:10:14.618Z,11.05
2023-05-02T12:12:45.303Z,7.55
2023-05-02T12:15:14.034Z,10.18
2023-05-02T12:17:45.540Z,12.25
2023-05-02T12:20:16.679Z,12.13
2023-05-02T12:22:45.674Z,10.93
2023-05-02T12:25:14.327Z,10.95
2023-05-02T12:27:43.130Z,9.05
2023-05-02T12:30:26.682Z,10.27
2023-05-02T12:32:58.907Z,7.43
2023-05-02T12:35:30.204Z,7.75
2023-05-02T12:38:11.389Z,9.30
2023-05-02T12:40:41.117Z,7.72
2023-05-02T12:43:10.747Z,7.25
2023-05-02T12:45:39.298Z,8.40
2023-05-02T12:48:25.734Z,7.38
2023-05-02T12:50:56.543Z,8.30
2023-05-02T12:53:41.729Z,5.25
2023-05-02T12:56:11.356Z,5.15
2023-05-02T12:58:44.436Z,5.85
2023-05-02T13:01:13.146Z,4.97
2023-05-02T13:03:42.767Z,5.47
2023-05-02T13:06:12.904Z,4.65
2023-05-02T13:08:41.631Z,5.85
2023-05-02T13:11:10.323Z,5.93
2023-05-02T13:13:38.739Z,5.63
2023-05-02T13:16:08.484Z,5.68
2023-05-02T13:18:37.097Z,5.53
2023-05-02T13:21:05.999Z,5.50
2023-05-02T13:23:37.249Z,6.88
2023-05-02T13:26:05.797Z,5.88
2023-05-02T13:28:35.779Z,6.47
2023-05-02T13:31:04.337Z,6.20
2023-05-02T13:33:32.844Z,5.78
2023-05-02T13:36:01.356Z,4.65
2023-05-02T13:38:29.799Z,4.97
2023-05-02T13:40:59.679Z,4.28
2023-05-02T13:43:28.209Z,4.15
2023-05-02T13:45:56.970Z,4.20
2023-05-02T13:48:25.385Z,4.43
2023-05-02T13:50:53.777Z,3.45
2023-05-02T13:53:22.285Z,4.40
2023-05-02T13:55:52.727Z,4.70
2023-05-02T13:58:22.523Z,4.05
2023-05-02T14:00:50.977Z,4.18
2023-05-02T14:03:22.579Z,4.65
2023-05-02T14:05:51.034Z,4.70
2023-05-02T14:08:19.409Z,5.90
2023-05-02T14:10:47.918Z,4.95
2023-05-02T14:13:17.828Z,4.88
2023-05-02T14:15:47.689Z,4.25
2023-05-02T14:18:16.711Z,4.80
2023-05-02T14:20:45.309Z,5.13
2023-05-02T14:23:13.945Z,5.50
2023-05-02T14:25:42.479Z,5.10
2023-05-02T14:28:11.353Z,5.47
2023-05-02T14:30:39.789Z,6.57
2023-05-02T14:33:09.608Z,4.93
2023-05-02T14:35:38.237Z,5.13
2023-05-02T14:38:06.853Z,4.22
2023-05-02T14:40:35.686Z,6.43
2023-05-02T14:43:04.065Z,5.00
2023-05-02T14:45:32.542Z,5.72
2023-05-02T14:48:00.916Z,5.85
2023-05-02T14:50:30.764Z,5.38
2023-05-02T14:53:00.473Z,5.15
2023-05-02T14:55:28.958Z,6.10
2023-05-02T14:57:58.494Z,7.70
2023-05-02T15:00:27.149Z,4.35
2023-05-02T15:02:55.904Z,4.22
2023-05-02T15:05:24.616Z,4.97
2023-05-02T15:07:54.374Z,4.75
2023-05-02T15:10:22.961Z,6.82
2023-05-02T15:12:51.459Z,4.43
2023-05-02T15:15:20.380Z,5.70
2023-05-02T15:17:49.188Z,5.03
2023-05-02T15:20:17.637Z,4.43
2023-05-02T15:22:46.126Z,5.13
2023-05-02T15:25:15.902Z,5.60
2023-05-02T15:27:44.496Z,4.50
2023-05-02T15:30:14.611Z,6.30
2023-05-02T15:32:44.619Z,4.28
2023-05-02T15:35:13.178Z,6.70
2023-05-02T15:37:42.101Z,5.10
2023-05-02T15:40:11.362Z,5.38
2023-05-02T15:42:41.583Z,5.50
2023-05-02T15:45:13.425Z,4.10
2023-05-02T15:47:42.367Z,5.65
2023-05-02T15:50:11.877Z,6.07
2023-05-02T15:52:40.523Z,4.00
2023-05-02T15:55:12.538Z,4.38
2023-05-02T15:57:42.420Z,4.63
2023-05-02T16:00:16.820Z,5.72
2023-05-02T16:02:45.965Z,5.55
2023-05-02T16:05:14.790Z,5.50
2023-05-02T16:07:44.877Z,4.35
2023-05-02T16:10:13.504Z,4.93
2023-05-02T16:12:46.444Z,4.72
2023-05-02T16:15:15.160Z,5.85
2023-05-02T16:20:52.833Z,5.97
2023-05-02T16:23:22.126Z,7.05
2023-05-02T16:25:50.630Z,5.47
2023-05-02T16:28:20.613Z,5.35
2023-05-02T16:30:49.093Z,5.15
2023-05-02T16:33:17.543Z,4.55
2023-05-02T16:35:46.106Z,4.40
2023-05-02T16:38:51.437Z,6.00
2023-05-02T16:41:19.943Z,4.35
2023-05-02T16:43:51.077Z,5.22
2023-05-02T16:46:19.705Z,5.25
2023-05-02T16:48:48.377Z,4.60
2023-05-02T16:51:16.908Z,5.00
2023-05-02T16:53:46.484Z,5.03
2023-05-02T16:56:15.310Z,5.90
2023-05-02T16:58:44.410Z,4.32
2023-05-02T17:01:14.374Z,6.32
2023-05-02T17:04:29.131Z,5.72
2023-05-02T17:07:00.519Z,5.57
2023-05-02T17:10:22.578Z,6.07
2023-05-02T17:13:57.440Z,3.80
2023-05-02T17:20:49.730Z,4.50
2023-05-02T17:23:18.485Z,4.57
2023-05-02T17:25:54.495Z,4.88
2023-05-02T17:28:23.202Z,5.15
2023-05-02T17:30:54.618Z,4.15
2023-05-02T17:33:26.397Z,6.63
2023-05-02T17:35:56.078Z,4.68
2023-05-02T17:38:24.658Z,4.70
2023-05-02T17:40:53.607Z,4.50
2023-05-02T17:43:22.079Z,4.50
2023-05-02T17:45:50.661Z,5.43
2023-05-02T17:48:26.294Z,4.72
2023-05-02T17:50:55.977Z,3.67
2023-05-02T17:53:24.429Z,4.10
2023-05-02T17:55:52.866Z,5.65
2023-05-02T17:58:21.495Z,5.03
2023-05-02T18:00:51.061Z,5.18
2023-05-02T18:03:19.743Z,5.28
2023-05-02T18:05:49.793Z,4.88
2023-05-02T18:08:18.298Z,4.57
2023-05-02T18:10:46.880Z,3.55
2023-05-02T18:13:15.537Z,4.32
2023-05-02T18:15:47.025Z,5.18
2023-05-02T18:18:15.561Z,4.97
2023-05-02T18:20:44.223Z,4.88
2023-05-02T18:23:14.298Z,5.43
2023-05-02T18:25:42.814Z,5.75
2023-05-02T18:28:12.078Z,4.68
2023-05-02T18:30:40.996Z,5.07
2023-05-02T18:33:09.667Z,5.63
2023-05-02T18:35:38.185Z,4.93
2023-05-02T18:38:07.761Z,4.93
2023-05-02T18:40:37.673Z,4.93
2023-05-02T18:43:06.158Z,4.72
2023-05-02T18:45:34.895Z,3.75
2023-05-02T18:48:04.089Z,4.57
2023-05-02T18:50:33.000Z,3.90
2023-05-02T18:53:01.548Z,6.55
2023-05-02T18:55:30.127Z,6.70
2023-05-02T18:58:00.024Z,4.40
2023-05-02T19:00:31.393Z,3.88
2023-05-02T19:03:00.175Z,3.92
2023-05-02T19:05:29.063Z,4.70
2023-05-02T19:07:57.629Z,3.67
2023-05-02T19:10:26.305Z,3.85
2023-05-02T19:12:54.850Z,3.92
2023-05-02T19:15:26.720Z,4.95
2023-05-02T19:17:55.664Z,4.22
2023-05-02T19:20:24.599Z,3.28
2023-05-02T19:23:02.931Z,3.67
2023-05-02T19:25:41.903Z,3.90
2023-05-02T19:28:12.118Z,3.72
2023-05-02T19:30:43.463Z,3.63
2023-05-02T19:33:12.157Z,4.70
2023-05-02T19:35:41.123Z,4.53
2023-05-02T19:38:09.787Z,5.78
2023-05-02T19:40:38.309Z,4.13
2023-05-02T19:43:06.930Z,4.60
2023-05-02T19:45:35.845Z,4.82
2023-05-02T19:48:07.260Z,3.88
2023-05-02T19:50:35.823Z,4.20
2023-05-02T19:53:05.229Z,4.32
2023-05-02T19:55:34.276Z,4.07
2023-05-02T19:58:04.396Z,4.97
2023-05-02T20:00:33.157Z,4.32
2023-05-02T20:03:01.937Z,4.97
2023-05-02T20:05:31.981Z,5.05
2023-05-02T20:08:00.709Z,4.65
2023-05-02T20:10:29.268Z,4.53
2023-05-02T20:12:57.874Z,4.85
2023-05-02T20:15:26.589Z,4.13
2023-05-02T20:17:57.065Z,4.57
2023-05-02T20:20:26.363Z,4.63
2023-05-02T20:22:57.094Z,4.97
2023-05-02T20:25:25.695Z,4.15
2023-05-02T20:27:54.493Z,4.68
2023-05-02T20:30:25.510Z,4.85
2023-05-02T20:32:54.231Z,3.97
2023-05-02T20:35:23.163Z,3.38
2023-05-02T20:37:53.949Z,4.53
2023-05-02T20:40:26.278Z,3.92
2023-05-02T20:42:55.735Z,4.32
2023-05-02T20:45:25.591Z,5.47
2023-05-02T20:47:54.336Z,3.80
2023-05-02T20:50:23.526Z,5.13
2023-05-02T20:52:52.146Z,4.43
2023-05-02T20:55:25.312Z,3.65
2023-05-02T20:57:55.257Z,4.95
2023-05-02T21:00:24.211Z,4.35
2023-05-02T21:02:52.916Z,4.13
2023-05-02T21:05:21.489Z,5.68
2023-05-02T21:07:50.095Z,3.80
2023-05-02T21:10:18.974Z,3.58
2023-05-02T21:12:47.602Z,3.80
2023-05-02T21:15:18.038Z,4.50
2023-05-02T21:17:46.850Z,4.25
2023-05-02T21:20:15.427Z,3.83
2023-05-02T21:22:44.733Z,4.80
2023-05-02T21:25:13.413Z,4.85
2023-05-02T21:27:42.045Z,3.67
2023-05-02T21:30:11.725Z,5.32
2023-05-02T21:32:41.678Z,4.05
2023-05-02T21:35:10.726Z,4.45
2023-05-02T21:37:39.358Z,5.35
2023-05-02T21:40:10.346Z,4.60
2023-05-02T21:42:38.934Z,5.20
2023-05-02T21:45:09.237Z,4.50
2023-05-02T21:47:37.984Z,5.38
2023-05-02T21:50:09.524Z,3.75
2023-05-02T21:52:38.422Z,3.78
2023-05-02T21:55:08.029Z,3.95
2023-05-02T21:57:36.582Z,4.15
2023-05-02T22:00:06.351Z,4.03
2023-05-02T22:02:35.145Z,3.92
2023-05-02T22:05:04.813Z,4.85
2023-05-02T22:07:34.833Z,3.90
2023-05-02T22:10:03.878Z,4.20
2023-05-02T22:12:32.763Z,3.78
2023-05-02T22:15:01.546Z,3.70
2023-05-02T22:17:31.778Z,3.20
2023-05-02T22:20:03.624Z,3.42
2023-05-02T22:22:32.416Z,3.63
2023-05-02T22:25:02.985Z,3.10
2023-05-02T22:27:31.780Z,3.38
2023-05-02T22:30:00.668Z,2.70
2023-05-02T22:32:29.512Z,3.83
2023-05-02T22:34:58.077Z,3.17
2023-05-02T22:37:26.838Z,3.60
2023-05-02T22:39:55.881Z,3.30
2023-05-02T22:42:25.841Z,3.13
2023-05-02T22:44:54.885Z,3.80
2023-05-02T22:47:23.543Z,4.30
2023-05-02T22:49:56.800Z,4.35
2023-05-02T22:52:27.456Z,2.95
2023-05-02T22:54:56.182Z,3.10
2023-05-02T22:57:26.171Z,2.80
2023-05-02T22:59:54.748Z,3.20
2023-05-02T23:02:23.493Z,3.20
2023-05-02T23:04:52.268Z,3.47
2023-05-02T23:07:21.104Z,3.60
2023-05-02T23:09:49.705Z,3.65
2023-05-02T23:12:18.336Z,2.97
2023-05-02T23:14:50.054Z,3.58
2023-05-02T23:17:18.802Z,4.28
2023-05-02T23:19:47.336Z,3.97
2023-05-02T23:22:15.833Z,4.22
2023-05-02T23:24:47.268Z,3.60
2023-05-02T23:27:16.467Z,3.60
2023-05-02T23:29:46.084Z,3.53
2023-05-02T23:32:16.667Z,4.28
2023-05-02T23:34:45.772Z,3.67
2023-05-02T23:37:14.637Z,3.67
2023-05-02T23:39:43.365Z,3.38
2023-05-02T23:42:12.018Z,3.55
2023-05-02T23:44:40.592Z,3.47
2023-05-02T23:47:09.268Z,3.22
2023-05-02T23:49:40.585Z,3.13
2023-05-02T23:52:09.472Z,3.78
2023-05-02T23:54:38.395Z,3.38
2023-05-02T23:57:10.800Z,3.85
2023-05-02T23:59:39.272Z,3.70
